createdAt,value
2019-01-11T00:04:45.487Z,3.40
2019-01-11T00:09:51.814Z,3.30
2019-01-11T00:14:56.220Z,3.30
2019-01-11T00:20:03.765Z,3.40
2019-01-11T00:25:07.706Z,3.30
2019-01-11T00:30:15.907Z,3.30
2019-01-11T00:35:22.343Z,3.30
2019-01-11T00:40:28.948Z,3.20
2019-01-11T00:45:32.950Z,3.20
2019-01-11T00:50:39.105Z,3.20
2019-01-11T00:55:45.692Z,3.20
2019-01-11T01:00:49.315Z,3.20
2019-01-11T01:05:52.993Z,3.30
2019-01-11T01:10:56.800Z,3.30
2019-01-11T01:16:06.249Z,3.30
2019-01-11T01:21:10.354Z,3.30
2019-01-11T01:26:14.716Z,3.30
2019-01-11T01:31:18.402Z,3.40
2019-01-11T01:36:27.618Z,3.40
2019-01-11T01:41:31.234Z,3.30
2019-01-11T01:46:34.893Z,3.30
2019-01-11T01:51:44.476Z,3.20
2019-01-11T01:56:52.182Z,3.20
2019-01-11T02:01:55.742Z,3.30
2019-01-11T02:07:03.516Z,3.40
2019-01-11T02:12:10.191Z,3.30
2019-01-11T02:17:13.857Z,3.20
2019-01-11T02:22:17.619Z,3.10
2019-01-11T02:27:21.723Z,3.10
2019-01-11T02:32:26.969Z,3.10
2019-01-11T02:37:35.440Z,3.10
2019-01-11T02:42:42.074Z,3.10
2019-01-11T02:47:46.977Z,3.10
2019-01-11T02:52:50.568Z,3.10
2019-01-11T02:57:56.887Z,3.00
2019-01-11T03:08:09.597Z,2.90
2019-01-11T03:13:17.822Z,2.90
2019-01-11T03:18:25.023Z,2.80
2019-01-11T03:23:30.287Z,2.90
2019-01-11T03:28:42.302Z,2.90
2019-01-11T03:33:45.882Z,3.00
2019-01-11T03:38:49.488Z,2.90
2019-01-11T03:43:53.159Z,2.80
2019-01-11T03:49:02.483Z,2.90
2019-01-11T03:54:12.199Z,2.80
2019-01-11T03:59:23.421Z,2.80
2019-01-11T04:04:30.064Z,2.80
2019-01-11T04:09:36.596Z,2.70
2019-01-11T04:14:40.200Z,2.70
2019-01-11T04:19:43.857Z,2.70
2019-01-11T04:25:06.335Z,2.60
2019-01-11T04:30:17.116Z,2.70
2019-01-11T04:35:20.843Z,2.70
2019-01-11T04:40:26.117Z,2.80
2019-01-11T04:45:33.877Z,2.80
2019-01-11T04:50:39.184Z,2.60
2019-01-11T04:55:42.853Z,2.60
2019-01-11T05:00:52.430Z,2.50
2019-01-11T05:05:57.437Z,2.50
2019-01-11T05:11:06.914Z,2.50
2019-01-11T05:16:10.650Z,2.50
2019-01-11T05:21:14.296Z,2.50
2019-01-11T05:26:17.953Z,2.40
2019-01-11T05:31:21.625Z,2.40
2019-01-11T05:36:25.242Z,2.40
2019-01-11T05:41:34.462Z,2.50
2019-01-11T05:46:39.714Z,2.60
2019-01-11T05:51:43.453Z,2.60
2019-01-11T05:56:49.919Z,2.60
2019-01-11T06:01:56.250Z,2.60
2019-01-11T06:07:04.448Z,2.70
2019-01-11T06:12:08.059Z,2.80
2019-01-11T06:17:11.657Z,2.90
2019-01-11T06:22:19.491Z,2.90
2019-01-11T06:27:23.266Z,2.80
2019-01-11T06:32:26.894Z,2.90
2019-01-11T06:37:30.515Z,2.80
2019-01-11T06:42:34.376Z,2.70
2019-01-11T06:47:44.409Z,2.60
2019-01-11T06:52:53.534Z,2.70
2019-01-11T06:58:00.035Z,2.60
2019-01-11T07:03:03.710Z,2.60
2019-01-11T07:08:10.031Z,2.60
2019-01-11T07:13:17.330Z,2.50
2019-01-11T07:18:20.925Z,2.60
2019-01-11T07:23:24.542Z,2.60
2019-01-11T07:28:31.310Z,2.60
2019-01-11T07:33:37.475Z,2.50
2019-01-11T07:38:42.640Z,2.50
2019-01-11T07:43:46.254Z,2.50
2019-01-11T07:48:49.925Z,2.50
2019-01-11T07:53:54.514Z,2.70
2019-01-11T07:59:03.918Z,2.60
2019-01-11T08:04:07.534Z,2.60
2019-01-11T08:09:14.054Z,2.60
2019-01-11T08:14:20.512Z,2.60
2019-01-11T08:19:24.114Z,2.60
2019-01-11T08:24:34.143Z,2.60
2019-01-11T08:29:37.809Z,2.20
2019-01-11T08:34:43.403Z,2.20
2019-01-11T08:39:46.678Z,2.30
2019-01-11T08:44:50.294Z,2.30
2019-01-11T08:49:53.975Z,2.30
2019-01-11T08:55:01.905Z,2.30
2019-01-11T09:00:13.075Z,2.10
2019-01-11T09:05:18.399Z,2.10
2019-01-11T09:10:25.235Z,2.20
2019-01-11T09:15:30.472Z,1.80
2019-01-11T09:20:34.250Z,2.10
2019-01-11T09:25:39.497Z,2.30
2019-01-11T09:30:43.117Z,2.50
2019-01-11T09:35:50.048Z,2.20
2019-01-11T09:40:53.654Z,2.20
2019-01-11T09:45:59.899Z,2.30
2019-01-11T09:51:05.905Z,2.20
2019-01-11T09:56:11.186Z,2.50
2019-01-11T10:01:15.344Z,2.50
2019-01-11T10:06:19.002Z,2.70
2019-01-11T10:11:25.894Z,2.80
2019-01-11T10:16:29.489Z,2.70
2019-01-11T10:21:36.050Z,2.50
2019-01-11T10:26:41.364Z,2.50
2019-01-11T10:31:44.987Z,2.30
2019-01-11T10:36:48.685Z,2.70
2019-01-11T10:41:53.243Z,2.90
2019-01-11T10:46:59.939Z,2.50
2019-01-11T10:52:03.622Z,2.80
2019-01-11T10:57:07.376Z,3.00
2019-01-11T11:02:12.647Z,3.10
2019-01-11T11:07:19.210Z,3.30
2019-01-11T11:12:22.906Z,3.10
2019-01-11T11:17:26.684Z,3.00
2019-01-11T11:22:30.462Z,3.50
2019-01-11T11:27:34.065Z,3.70
2019-01-11T11:32:45.368Z,3.70
2019-01-11T11:37:51.844Z,3.70
2019-01-11T11:42:55.735Z,3.90
2019-01-11T11:47:59.329Z,4.30
2019-01-11T11:53:05.951Z,4.40
2019-01-11T11:58:13.943Z,4.00
2019-01-11T12:03:20.367Z,4.00
2019-01-11T12:08:26.674Z,3.70
2019-01-11T12:13:34.650Z,3.70
2019-01-11T12:18:38.800Z,3.50
2019-01-11T12:23:42.488Z,3.40
2019-01-11T12:28:46.101Z,3.00
2019-01-11T12:33:54.051Z,2.90
2019-01-11T12:39:01.052Z,2.80
2019-01-11T12:44:04.900Z,2.80
2019-01-11T12:49:09.335Z,2.80
2019-01-11T12:54:17.410Z,2.70
2019-01-11T12:59:21.018Z,2.50
2019-01-11T13:04:27.672Z,2.50
2019-01-11T13:09:31.327Z,2.60
2019-01-11T13:14:36.609Z,2.50
2019-01-11T13:19:43.167Z,2.40
2019-01-11T13:24:51.082Z,2.30
2019-01-11T13:29:55.121Z,2.30
2019-01-11T13:35:00.665Z,2.40
2019-01-11T13:40:07.216Z,2.20
2019-01-11T13:45:11.784Z,2.10
2019-01-11T13:50:40.167Z,2.20
2019-01-11T13:55:43.845Z,2.00
2019-01-11T14:00:53.209Z,2.00
2019-01-11T14:05:56.890Z,2.10
2019-01-11T14:11:00.530Z,2.00
2019-01-11T14:16:04.763Z,2.10
2019-01-11T14:21:11.331Z,2.40
2019-01-11T14:26:14.942Z,2.40
2019-01-11T14:31:19.438Z,2.10
2019-01-11T14:36:26.130Z,2.10
2019-01-11T14:41:29.927Z,2.30
2019-01-11T14:46:33.523Z,2.30
2019-01-11T14:51:37.161Z,2.30
2019-01-11T14:56:42.435Z,2.40
2019-01-11T15:01:46.037Z,2.40
2019-01-11T15:06:52.114Z,2.50
2019-01-11T15:11:57.386Z,2.40
2019-01-11T15:17:04.114Z,2.30
2019-01-11T15:22:09.358Z,2.20
2019-01-11T15:27:13.050Z,2.30
2019-01-11T15:32:21.089Z,2.00
2019-01-11T15:37:29.187Z,1.80
2019-01-11T15:42:32.933Z,1.80
2019-01-11T15:47:38.095Z,1.90
2019-01-11T15:52:41.950Z,2.10
2019-01-11T15:57:53.928Z,2.10
2019-01-11T16:03:07.005Z,2.00
2019-01-11T16:08:10.705Z,2.00
2019-01-11T16:13:15.886Z,2.20
2019-01-11T16:18:21.835Z,2.30
2019-01-11T16:23:25.534Z,2.10
2019-01-11T16:28:30.762Z,2.10
2019-01-11T16:33:34.638Z,1.70
2019-01-11T16:38:38.300Z,1.70
2019-01-11T16:43:41.913Z,1.70
2019-01-11T16:48:48.495Z,1.40
2019-01-11T16:53:52.258Z,1.70
2019-01-11T16:58:56.137Z,1.90
2019-01-11T17:04:05.358Z,2.00
2019-01-11T17:09:18.410Z,2.20
2019-01-11T17:14:22.308Z,2.20
2019-01-11T17:19:28.843Z,2.20
2019-01-11T17:24:34.172Z,2.20
2019-01-11T17:29:39.670Z,2.00
2019-01-11T17:34:44.086Z,1.90
2019-01-11T17:39:49.595Z,2.00
2019-01-11T17:44:52.961Z,1.90
2019-01-11T17:50:01.110Z,1.80
2019-01-11T17:55:05.229Z,1.60
2019-01-11T18:00:20.701Z,1.50
2019-01-11T18:05:21.743Z,1.40
2019-01-11T18:10:25.401Z,1.60
2019-01-11T18:15:30.637Z,1.30
2019-01-11T18:20:34.327Z,1.10
2019-01-11T18:25:37.918Z,1.10
2019-01-11T18:30:41.533Z,1.00
2019-01-11T18:35:49.673Z,0.90
2019-01-11T18:40:53.787Z,1.10
2019-01-11T18:46:05.435Z,1.00
2019-01-11T18:51:09.327Z,0.90
2019-01-11T18:56:15.938Z,1.10
2019-01-11T19:01:19.551Z,0.70
2019-01-11T19:06:30.116Z,0.70
2019-01-11T19:11:38.520Z,0.80
2019-01-11T19:16:42.118Z,0.80
2019-01-11T19:21:47.508Z,0.60
2019-01-11T19:26:51.351Z,0.60
2019-01-11T19:32:00.720Z,0.50
2019-01-11T19:37:05.239Z,0.50
2019-01-11T19:42:08.878Z,0.50
2019-01-11T19:47:15.200Z,0.40
2019-01-11T19:52:20.478Z,0.30
2019-01-11T19:57:24.414Z,0.50
2019-01-11T20:02:28.141Z,0.50
2019-01-11T20:07:33.397Z,0.70
2019-01-11T20:12:39.082Z,0.60
2019-01-11T20:17:45.908Z,0.70
2019-01-11T20:22:49.578Z,0.70
2019-01-11T20:27:53.346Z,1.00
2019-01-11T20:32:59.784Z,0.90
2019-01-11T20:38:03.611Z,1.00
2019-01-11T20:43:07.210Z,0.60
2019-01-11T20:48:12.602Z,0.90
2019-01-11T20:53:24.960Z,0.80
2019-01-11T20:58:29.340Z,0.90
2019-01-11T21:03:33.811Z,0.70
2019-01-11T21:08:49.170Z,0.70
2019-01-11T21:13:54.449Z,1.00
2019-01-11T21:19:00.623Z,0.90
2019-01-11T21:24:04.473Z,0.70
2019-01-11T21:29:11.230Z,0.70
2019-01-11T21:34:14.937Z,0.80
2019-01-11T21:39:18.662Z,0.60
2019-01-11T21:44:24.080Z,0.50
2019-01-11T21:49:27.690Z,0.70
2019-01-11T21:54:34.726Z,0.70
2019-01-11T21:59:38.434Z,0.80
2019-01-11T22:04:44.048Z,0.60
2019-01-11T22:09:49.202Z,0.60
2019-01-11T22:14:54.466Z,0.80
2019-01-11T22:19:58.106Z,0.70
2019-01-11T22:25:05.728Z,0.60
2019-01-11T22:30:12.644Z,0.70
2019-01-11T22:35:18.307Z,0.70
2019-01-11T22:40:23.713Z,0.70
2019-01-11T22:45:27.588Z,0.70
2019-01-11T22:50:31.472Z,0.60
2019-01-11T22:55:35.309Z,0.60
2019-01-11T23:00:51.010Z,0.60
2019-01-11T23:05:57.735Z,0.70
2019-01-11T23:11:26.705Z,0.80
2019-01-11T23:16:33.049Z,0.60
2019-01-11T23:21:39.687Z,0.70
2019-01-11T23:26:46.267Z,0.80
2019-01-11T23:31:52.579Z,0.80
2019-01-11T23:36:56.355Z,0.90
2019-01-11T23:41:59.975Z,0.80
2019-01-11T23:47:03.617Z,0.70
2019-01-11T23:52:07.236Z,0.80
2019-01-11T23:57:13.401Z,1.00
